sensor_id;sensor_type;location;lat;lon;timestamp;pressure;altitude;pressure_sealevel;temperature;humidity
72210;BME280;60113;48.762;12.302;2023-03-22T00:01:14;97084.19;;;7.03;77.58
72210;BME280;60113;48.762;12.302;2023-03-22T00:03:40;97078.13;;;7.02;76.77
72210;BME280;60113;48.762;12.302;2023-03-22T00:06:06;97075.44;;;7.04;76.97
72210;BME280;60113;48.762;12.302;2023-03-22T00:08:32;97078.25;;;7.00;75.11
72210;BME280;60113;48.762;12.302;2023-03-22T00:10:57;97084.28;;;7.01;76.35
72210;BME280;60113;48.762;12.302;2023-03-22T00:13:23;97068.91;;;6.96;71.75
72210;BME280;60113;48.762;12.302;2023-03-22T00:15:48;97067.13;;;6.97;71.92
72210;BME280;60113;48.762;12.302;2023-03-22T00:18:14;97065.38;;;6.97;73.86
72210;BME280;60113;48.762;12.302;2023-03-22T00:20:49;97062.88;;;6.96;75.55
72210;BME280;60113;48.762;12.302;2023-03-22T00:23:15;97071.63;;;6.95;76.60
72210;BME280;60113;48.762;12.302;2023-03-22T00:25:42;97065.78;;;6.91;68.87
72210;BME280;60113;48.762;12.302;2023-03-22T00:28:08;97063.97;;;6.92;77.64
72210;BME280;60113;48.762;12.302;2023-03-22T00:30:33;97063.25;;;6.90;80.08
72210;BME280;60113;48.762;12.302;2023-03-22T00:32:58;97057.38;;;6.86;78.24
72210;BME280;60113;48.762;12.302;2023-03-22T00:35:24;97051.50;;;6.82;73.50
72210;BME280;60113;48.762;12.302;2023-03-22T00:37:49;97054.97;;;6.83;74.32
72210;BME280;60113;48.762;12.302;2023-03-22T00:40:15;97052.34;;;6.83;81.11
72210;BME280;60113;48.762;12.302;2023-03-22T00:42:41;97053.50;;;6.79;81.66
72210;BME280;60113;48.762;12.302;2023-03-22T00:45:07;97054.41;;;6.78;81.39
72210;BME280;60113;48.762;12.302;2023-03-22T00:47:33;97048.38;;;6.77;82.07
72210;BME280;60113;48.762;12.302;2023-03-22T00:49:59;97047.72;;;6.73;81.04
72210;BME280;60113;48.762;12.302;2023-03-22T00:52:24;97044.16;;;6.74;80.59
72210;BME280;60113;48.762;12.302;2023-03-22T00:54:50;97048.66;;;6.72;77.57
72210;BME280;60113;48.762;12.302;2023-03-22T00:57:16;97042.50;;;6.73;79.66
72210;BME280;60113;48.762;12.302;2023-03-22T00:59:42;97040.72;;;6.74;82.16
72210;BME280;60113;48.762;12.302;2023-03-22T01:02:07;97040.16;;;6.69;73.43
72210;BME280;60113;48.762;12.302;2023-03-22T01:04:33;97039.88;;;6.73;70.81
72210;BME280;60113;48.762;12.302;2023-03-22T01:06:59;97043.16;;;6.77;71.29
72210;BME280;60113;48.762;12.302;2023-03-22T01:09:27;97050.78;;;6.80;74.49
72210;BME280;60113;48.762;12.302;2023-03-22T01:11:55;97045.56;;;6.80;72.72
72210;BME280;60113;48.762;12.302;2023-03-22T01:14:21;97042.94;;;6.80;72.99
72210;BME280;60113;48.762;12.302;2023-03-22T01:16:46;97035.84;;;6.82;74.37
72210;BME280;60113;48.762;12.302;2023-03-22T01:19:12;97033.22;;;6.82;79.73
72210;BME280;60113;48.762;12.302;2023-03-22T01:21:37;97022.97;;;6.79;74.14
72210;BME280;60113;48.762;12.302;2023-03-22T01:24:03;97023.63;;;6.83;73.97
72210;BME280;60113;48.762;12.302;2023-03-22T01:26:28;97024.28;;;6.86;72.70
72210;BME280;60113;48.762;12.302;2023-03-22T01:28:53;97032.72;;;6.90;77.28
72210;BME280;60113;48.762;12.302;2023-03-22T01:31:18;97029.28;;;6.90;74.22
72210;BME280;60113;48.762;12.302;2023-03-22T01:33:44;97027.59;;;6.88;76.69
72210;BME280;60113;48.762;12.302;2023-03-22T01:36:09;97031.91;;;6.90;72.92
72210;BME280;60113;48.762;12.302;2023-03-22T01:38:35;97030.97;;;6.91;83.10
72210;BME280;60113;48.762;12.302;2023-03-22T01:41:00;97030.13;;;6.90;84.75
72210;BME280;60113;48.762;12.302;2023-03-22T01:43:26;97018.00;;;6.89;84.20
72210;BME280;60113;48.762;12.302;2023-03-22T01:45:51;97023.44;;;6.86;79.72
72210;BME280;60113;48.762;12.302;2023-03-22T01:48:22;97010.47;;;6.84;76.61
72210;BME280;60113;48.762;12.302;2023-03-22T01:51:11;97016.44;;;6.86;77.55
72210;BME280;60113;48.762;12.302;2023-03-22T01:53:37;97020.81;;;6.86;78.68
72210;BME280;60113;48.762;12.302;2023-03-22T01:56:03;97013.94;;;6.85;78.41
72210;BME280;60113;48.762;12.302;2023-03-22T01:58:28;97012.13;;;6.85;78.01
72210;BME280;60113;48.762;12.302;2023-03-22T02:00:54;97013.94;;;6.85;80.54
72210;BME280;60113;48.762;12.302;2023-03-22T02:03:23;97000.00;;;6.84;80.20
72210;BME280;60113;48.762;12.302;2023-03-22T02:05:51;97007.19;;;6.81;73.16
72210;BME280;60113;48.762;12.302;2023-03-22T02:08:16;97003.78;;;6.80;75.22
72210;BME280;60113;48.762;12.302;2023-03-22T02:10:42;96998.56;;;6.80;81.63
72210;BME280;60113;48.762;12.302;2023-03-22T02:13:12;97003.31;;;6.73;79.97
72210;BME280;60113;48.762;12.302;2023-03-22T02:21:02;96997.72;;;6.52;76.68
72210;BME280;60113;48.762;12.302;2023-03-22T02:33:52;97009.22;;;6.20;85.09
72210;BME280;60113;48.762;12.302;2023-03-22T02:41:27;97006.28;;;6.12;82.12
72210;BME280;60113;48.762;12.302;2023-03-22T02:44:14;96996.75;;;6.11;86.60
72210;BME280;60113;48.762;12.302;2023-03-22T02:49:23;96990.22;;;6.04;71.44
72210;BME280;60113;48.762;12.302;2023-03-22T02:51:56;96987.06;;;5.98;68.01
72210;BME280;60113;48.762;12.302;2023-03-22T02:57:06;96990.88;;;5.93;67.15
72210;BME280;60113;48.762;12.302;2023-03-22T02:59:33;96983.72;;;5.96;85.88
72210;BME280;60113;48.762;12.302;2023-03-22T03:02:02;96984.94;;;5.91;69.34
72210;BME280;60113;48.762;12.302;2023-03-22T03:04:30;96991.72;;;5.93;74.63
72210;BME280;60113;48.762;12.302;2023-03-22T03:07:05;96999.63;;;5.92;78.47
72210;BME280;60113;48.762;12.302;2023-03-22T03:09:31;96995.28;;;5.92;79.27
72210;BME280;60113;48.762;12.302;2023-03-22T03:11:57;97005.63;;;5.94;80.30
72210;BME280;60113;48.762;12.302;2023-03-22T03:14:23;97002.25;;;5.92;79.67
72210;BME280;60113;48.762;12.302;2023-03-22T03:19:27;97002.81;;;5.82;77.70
72210;BME280;60113;48.762;12.302;2023-03-22T03:27:32;97007.47;;;5.62;80.81
72210;BME280;60113;48.762;12.302;2023-03-22T03:30:02;97008.56;;;5.58;86.83
72210;BME280;60113;48.762;12.302;2023-03-22T03:35:35;97008.34;;;5.32;71.66
72210;BME280;60113;48.762;12.302;2023-03-22T03:38:05;97011.66;;;5.20;70.34
72210;BME280;60113;48.762;12.302;2023-03-22T03:40:33;97015.72;;;5.09;71.96
72210;BME280;60113;48.762;12.302;2023-03-22T03:43:03;97015.41;;;4.99;72.37
72210;BME280;60113;48.762;12.302;2023-03-22T03:45:30;97011.50;;;4.92;79.39
72210;BME280;60113;48.762;12.302;2023-03-22T03:47:57;97012.84;;;4.83;84.22
72210;BME280;60113;48.762;12.302;2023-03-22T03:50:23;97012.53;;;4.73;75.81
72210;BME280;60113;48.762;12.302;2023-03-22T03:52:50;97010.34;;;4.66;80.34
72210;BME280;60113;48.762;12.302;2023-03-22T03:55:15;97004.00;;;4.55;79.85
72210;BME280;60113;48.762;12.302;2023-03-22T03:57:41;97000.97;;;4.47;79.87
72210;BME280;60113;48.762;12.302;2023-03-22T04:00:06;96993.66;;;4.37;85.36
72210;BME280;60113;48.762;12.302;2023-03-22T04:02:33;96998.31;;;4.32;90.44
72210;BME280;60113;48.762;12.302;2023-03-22T04:04:58;97001.31;;;4.24;92.08
72210;BME280;60113;48.762;12.302;2023-03-22T04:07:24;96999.22;;;4.15;87.37
72210;BME280;60113;48.762;12.302;2023-03-22T04:09:49;96994.50;;;4.06;84.60
72210;BME280;60113;48.762;12.302;2023-03-22T04:12:14;96985.38;;;3.98;84.52
72210;BME280;60113;48.762;12.302;2023-03-22T04:14:40;96986.75;;;3.88;87.34
72210;BME280;60113;48.762;12.302;2023-03-22T04:17:05;97002.03;;;3.78;83.95
72210;BME280;60113;48.762;12.302;2023-03-22T04:19:31;97006.59;;;3.73;84.71
72210;BME280;60113;48.762;12.302;2023-03-22T04:21:56;97008.84;;;3.63;83.28
72210;BME280;60113;48.762;12.302;2023-03-22T04:24:22;97007.47;;;3.56;78.48
72210;BME280;60113;48.762;12.302;2023-03-22T04:26:47;96999.75;;;3.54;74.13
72210;BME280;60113;48.762;12.302;2023-03-22T04:29:12;96996.94;;;3.59;80.92
72210;BME280;60113;48.762;12.302;2023-03-22T04:31:38;97001.19;;;3.60;84.72
72210;BME280;60113;48.762;12.302;2023-03-22T04:34:04;97009.06;;;3.58;82.25
72210;BME280;60113;48.762;12.302;2023-03-22T04:36:34;97007.41;;;3.57;79.43
72210;BME280;60113;48.762;12.302;2023-03-22T04:39:04;97007.63;;;3.53;75.74
72210;BME280;60113;48.762;12.302;2023-03-22T04:41:30;97011.25;;;3.50;73.15
72210;BME280;60113;48.762;12.302;2023-03-22T04:43:55;97007.19;;;3.44;81.42
72210;BME280;60113;48.762;12.302;2023-03-22T04:46:22;97009.34;;;3.36;82.01
72210;BME280;60113;48.762;12.302;2023-03-22T04:48:48;97007.28;;;3.25;82.61
72210;BME280;60113;48.762;12.302;2023-03-22T04:51:13;97015.63;;;3.14;83.77
72210;BME280;60113;48.762;12.302;2023-03-22T04:53:39;96999.78;;;3.01;80.63
72210;BME280;60113;48.762;12.302;2023-03-22T04:56:05;96990.66;;;2.94;83.91
72210;BME280;60113;48.762;12.302;2023-03-22T04:58:32;96991.09;;;2.84;85.21
72210;BME280;60113;48.762;12.302;2023-03-22T05:00:57;96995.72;;;2.78;85.80
72210;BME280;60113;48.762;12.302;2023-03-22T05:03:23;96994.44;;;2.69;84.16
72210;BME280;60113;48.762;12.302;2023-03-22T05:05:49;96992.13;;;2.62;83.83
72210;BME280;60113;48.762;12.302;2023-03-22T05:08:14;96989.00;;;2.56;83.89
72210;BME280;60113;48.762;12.302;2023-03-22T05:10:40;96990.81;;;2.54;90.94
72210;BME280;60113;48.762;12.302;2023-03-22T05:13:05;96991.19;;;2.46;90.89
72210;BME280;60113;48.762;12.302;2023-03-22T05:15:31;96997.50;;;2.40;90.23
72210;BME280;60113;48.762;12.302;2023-03-22T05:17:56;96998.56;;;2.36;87.28
72210;BME280;60113;48.762;12.302;2023-03-22T05:20:22;97005.72;;;2.31;87.04
72210;BME280;60113;48.762;12.302;2023-03-22T05:22:47;97011.88;;;2.28;87.48
72210;BME280;60113;48.762;12.302;2023-03-22T05:25:14;97010.28;;;2.25;85.81
72210;BME280;60113;48.762;12.302;2023-03-22T05:27:42;97015.59;;;2.22;85.20
72210;BME280;60113;48.762;12.302;2023-03-22T05:30:07;97008.16;;;2.15;71.70
72210;BME280;60113;48.762;12.302;2023-03-22T05:32:33;97014.97;;;2.17;77.75
72210;BME280;60113;48.762;12.302;2023-03-22T05:35:01;97023.44;;;2.21;82.58
72210;BME280;60113;48.762;12.302;2023-03-22T05:37:29;97019.94;;;2.22;78.02
72210;BME280;60113;48.762;12.302;2023-03-22T05:39:54;97029.94;;;2.30;85.97
72210;BME280;60113;48.762;12.302;2023-03-22T05:42:20;97025.56;;;2.32;85.63
72210;BME280;60113;48.762;12.302;2023-03-22T05:44:45;97026.25;;;2.35;86.82
72210;BME280;60113;48.762;12.302;2023-03-22T05:47:10;97026.19;;;2.37;79.25
72210;BME280;60113;48.762;12.302;2023-03-22T05:49:36;97032.47;;;2.50;78.09
72210;BME280;60113;48.762;12.302;2023-03-22T05:52:01;97027.50;;;2.65;78.59
72210;BME280;60113;48.762;12.302;2023-03-22T05:54:28;97035.44;;;2.80;78.44
72210;BME280;60113;48.762;12.302;2023-03-22T05:56:53;97028.06;;;2.90;78.61
72210;BME280;60113;48.762;12.302;2023-03-22T05:59:20;97032.03;;;2.97;77.79
72210;BME280;60113;48.762;12.302;2023-03-22T06:01:45;97018.81;;;3.02;76.31
72210;BME280;60113;48.762;12.302;2023-03-22T06:04:10;97022.03;;;3.07;75.30
72210;BME280;60113;48.762;12.302;2023-03-22T06:06:36;97024.25;;;3.15;76.40
72210;BME280;60113;48.762;12.302;2023-03-22T06:09:02;97015.22;;;3.22;79.66
72210;BME280;60113;48.762;12.302;2023-03-22T06:11:28;97016.53;;;3.31;85.25
72210;BME280;60113;48.762;12.302;2023-03-22T06:13:58;97020.63;;;3.35;85.63
72210;BME280;60113;48.762;12.302;2023-03-22T06:16:23;97016.06;;;3.40;87.04
72210;BME280;60113;48.762;12.302;2023-03-22T06:18:49;97020.94;;;3.46;87.16
72210;BME280;60113;48.762;12.302;2023-03-22T06:21:14;97027.66;;;3.50;84.51
72210;BME280;60113;48.762;12.302;2023-03-22T06:23:40;97017.78;;;3.57;85.49
72210;BME280;60113;48.762;12.302;2023-03-22T06:26:05;97015.66;;;3.66;84.79
72210;BME280;60113;48.762;12.302;2023-03-22T06:28:30;97019.53;;;3.74;82.63
72210;BME280;60113;48.762;12.302;2023-03-22T06:30:56;97012.91;;;3.85;83.01
72210;BME280;60113;48.762;12.302;2023-03-22T06:33:21;97021.84;;;3.97;81.54
72210;BME280;60113;48.762;12.302;2023-03-22T06:35:47;97025.47;;;4.10;84.02
72210;BME280;60113;48.762;12.302;2023-03-22T06:38:12;97029.50;;;4.32;88.80
72210;BME280;60113;48.762;12.302;2023-03-22T06:40:38;97029.75;;;4.60;89.01
72210;BME280;60113;48.762;12.302;2023-03-22T06:43:04;97021.91;;;4.92;84.72
72210;BME280;60113;48.762;12.302;2023-03-22T06:45:30;97028.16;;;5.35;85.31
72210;BME280;60113;48.762;12.302;2023-03-22T06:47:57;97028.31;;;5.77;84.88
72210;BME280;60113;48.762;12.302;2023-03-22T06:50:23;97026.38;;;6.24;83.60
72210;BME280;60113;48.762;12.302;2023-03-22T06:52:48;97026.63;;;6.77;82.20
72210;BME280;60113;48.762;12.302;2023-03-22T06:55:13;97029.50;;;7.27;81.94
72210;BME280;60113;48.762;12.302;2023-03-22T06:57:39;97038.34;;;7.78;82.01
72210;BME280;60113;48.762;12.302;2023-03-22T07:00:05;97022.88;;;8.25;81.97
72210;BME280;60113;48.762;12.302;2023-03-22T07:02:30;97026.63;;;8.60;81.18
72210;BME280;60113;48.762;12.302;2023-03-22T07:04:55;97021.31;;;8.98;81.55
72210;BME280;60113;48.762;12.302;2023-03-22T07:07:21;97026.31;;;9.25;80.18
72210;BME280;60113;48.762;12.302;2023-03-22T07:09:46;97025.06;;;9.54;80.45
72210;BME280;60113;48.762;12.302;2023-03-22T07:12:11;97018.31;;;9.86;79.73
72210;BME280;60113;48.762;12.302;2023-03-22T07:14:37;97015.34;;;10.13;78.97
72210;BME280;60113;48.762;12.302;2023-03-22T07:17:02;97012.44;;;10.40;81.50
72210;BME280;60113;48.762;12.302;2023-03-22T07:19:27;97014.94;;;10.64;78.33
72210;BME280;60113;48.762;12.302;2023-03-22T07:21:53;97004.81;;;10.92;77.65
72210;BME280;60113;48.762;12.302;2023-03-22T07:24:18;97012.06;;;11.11;75.15
72210;BME280;60113;48.762;12.302;2023-03-22T07:26:43;97008.47;;;11.34;76.58
72210;BME280;60113;48.762;12.302;2023-03-22T07:29:09;97011.47;;;11.50;74.02
72210;BME280;60113;48.762;12.302;2023-03-22T07:31:34;97020.28;;;11.61;73.55
72210;BME280;60113;48.762;12.302;2023-03-22T07:34:01;97007.88;;;11.73;74.88
72210;BME280;60113;48.762;12.302;2023-03-22T07:36:27;97013.59;;;11.78;72.14
72210;BME280;60113;48.762;12.302;2023-03-22T07:38:52;97009.16;;;11.79;72.61
72210;BME280;60113;48.762;12.302;2023-03-22T07:41:17;97007.09;;;11.82;72.07
72210;BME280;60113;48.762;12.302;2023-03-22T07:43:43;97004.78;;;11.89;72.73
72210;BME280;60113;48.762;12.302;2023-03-22T07:46:09;97010.47;;;11.94;69.80
72210;BME280;60113;48.762;12.302;2023-03-22T07:48:35;97011.19;;;12.06;71.79
72210;BME280;60113;48.762;12.302;2023-03-22T07:51:01;97009.38;;;12.18;71.11
72210;BME280;60113;48.762;12.302;2023-03-22T07:53:26;96997.75;;;12.31;71.50
72210;BME280;60113;48.762;12.302;2023-03-22T07:55:51;97006.66;;;12.40;72.08
72210;BME280;60113;48.762;12.302;2023-03-22T07:58:17;97002.50;;;12.37;68.02
72210;BME280;60113;48.762;12.302;2023-03-22T08:00:42;97008.16;;;12.42;68.99
72210;BME280;60113;48.762;12.302;2023-03-22T08:03:09;97001.69;;;12.56;69.68
72210;BME280;60113;48.762;12.302;2023-03-22T08:05:38;97009.50;;;12.78;67.62
72210;BME280;60113;48.762;12.302;2023-03-22T08:08:03;97006.88;;;13.07;71.10
72210;BME280;60113;48.762;12.302;2023-03-22T08:10:29;97007.72;;;13.37;69.79
72210;BME280;60113;48.762;12.302;2023-03-22T08:12:56;97004.50;;;13.54;72.50
72210;BME280;60113;48.762;12.302;2023-03-22T08:15:22;97003.69;;;13.53;68.35
72210;BME280;60113;48.762;12.302;2023-03-22T08:17:48;97007.84;;;13.66;69.46
72210;BME280;60113;48.762;12.302;2023-03-22T08:20:13;97006.13;;;13.74;64.99
72210;BME280;60113;48.762;12.302;2023-03-22T08:22:42;97010.81;;;13.91;65.39
72210;BME280;60113;48.762;12.302;2023-03-22T08:25:08;97006.72;;;14.06;62.61
72210;BME280;60113;48.762;12.302;2023-03-22T08:27:34;97016.81;;;14.21;60.77
72210;BME280;60113;48.762;12.302;2023-03-22T08:29:59;97012.31;;;14.31;61.39
72210;BME280;60113;48.762;12.302;2023-03-22T08:32:25;97016.06;;;14.38;60.76
72210;BME280;60113;48.762;12.302;2023-03-22T08:34:50;97015.34;;;14.65;62.30
72210;BME280;60113;48.762;12.302;2023-03-22T08:37:16;97017.06;;;14.84;62.20
72210;BME280;60113;48.762;12.302;2023-03-22T08:39:44;97018.34;;;14.80;57.53
72210;BME280;60113;48.762;12.302;2023-03-22T08:42:09;97009.81;;;14.86;57.38
72210;BME280;60113;48.762;12.302;2023-03-22T08:44:35;97012.94;;;15.18;69.48
72210;BME280;60113;48.762;12.302;2023-03-22T08:47:00;97012.53;;;15.31;59.30
72210;BME280;60113;48.762;12.302;2023-03-22T08:49:26;97011.41;;;15.60;59.66
72210;BME280;60113;48.762;12.302;2023-03-22T08:51:51;97012.00;;;15.72;55.23
72210;BME280;60113;48.762;12.302;2023-03-22T08:54:16;97006.25;;;15.77;55.72
72210;BME280;60113;48.762;12.302;2023-03-22T08:56:42;97007.69;;;15.97;54.73
72210;BME280;60113;48.762;12.302;2023-03-22T08:59:08;97002.09;;;16.00;53.72
72210;BME280;60113;48.762;12.302;2023-03-22T09:01:34;96997.63;;;16.01;55.27
72210;BME280;60113;48.762;12.302;2023-03-22T09:04:00;96998.84;;;16.15;59.60
72210;BME280;60113;48.762;12.302;2023-03-22T09:06:25;97003.53;;;16.21;55.93
72210;BME280;60113;48.762;12.302;2023-03-22T09:08:51;97002.09;;;16.35;54.70
72210;BME280;60113;48.762;12.302;2023-03-22T09:11:17;96998.31;;;16.55;57.15
72210;BME280;60113;48.762;12.302;2023-03-22T09:13:42;97001.00;;;16.71;65.93
72210;BME280;60113;48.762;12.302;2023-03-22T09:16:08;96996.75;;;16.79;60.47
72210;BME280;60113;48.762;12.302;2023-03-22T09:18:34;96993.19;;;16.53;52.99
72210;BME280;60113;48.762;12.302;2023-03-22T09:20:59;96996.56;;;16.64;52.46
72210;BME280;60113;48.762;12.302;2023-03-22T09:23:25;96989.78;;;16.86;61.21
72210;BME280;60113;48.762;12.302;2023-03-22T09:25:50;96990.81;;;17.02;55.17
72210;BME280;60113;48.762;12.302;2023-03-22T09:28:15;96981.72;;;17.21;53.83
72210;BME280;60113;48.762;12.302;2023-03-22T09:30:41;96970.09;;;17.47;54.02
72210;BME280;60113;48.762;12.302;2023-03-22T09:33:06;96971.75;;;17.31;49.20
72210;BME280;60113;48.762;12.302;2023-03-22T09:35:32;96973.22;;;17.50;57.40
72210;BME280;60113;48.762;12.302;2023-03-22T09:37:57;96974.06;;;17.59;56.22
72210;BME280;60113;48.762;12.302;2023-03-22T09:40:28;96971.34;;;17.84;55.08
72210;BME280;60113;48.762;12.302;2023-03-22T09:42:55;96969.94;;;18.05;58.71
72210;BME280;60113;48.762;12.302;2023-03-22T09:45:33;96961.69;;;17.92;52.07
72210;BME280;60113;48.762;12.302;2023-03-22T09:48:02;96957.69;;;17.96;53.88
72210;BME280;60113;48.762;12.302;2023-03-22T09:50:30;96958.66;;;18.11;49.18
72210;BME280;60113;48.762;12.302;2023-03-22T09:52:56;96944.59;;;18.34;57.34
72210;BME280;60113;48.762;12.302;2023-03-22T09:55:26;96943.94;;;18.32;52.70
72210;BME280;60113;48.762;12.302;2023-03-22T10:05:50;96932.13;;;18.35;51.87
72210;BME280;60113;48.762;12.302;2023-03-22T10:08:21;96931.53;;;18.08;46.88
72210;BME280;60113;48.762;12.302;2023-03-22T10:10:50;96937.53;;;18.10;48.45
72210;BME280;60113;48.762;12.302;2023-03-22T10:18:20;96936.69;;;18.09;53.62
72210;BME280;60113;48.762;12.302;2023-03-22T10:23:29;96917.03;;;17.87;47.13
72210;BME280;60113;48.762;12.302;2023-03-22T10:25:56;96930.81;;;17.82;49.23
72210;BME280;60113;48.762;12.302;2023-03-22T10:28:24;96923.81;;;17.90;47.62
72210;BME280;60113;48.762;12.302;2023-03-22T10:30:54;96932.06;;;18.11;48.18
72210;BME280;60113;48.762;12.302;2023-03-22T10:33:22;96924.31;;;18.33;49.88
72210;BME280;60113;48.762;12.302;2023-03-22T10:35:50;96928.28;;;18.37;42.80
72210;BME280;60113;48.762;12.302;2023-03-22T10:38:26;96917.75;;;18.53;50.50
72210;BME280;60113;48.762;12.302;2023-03-22T10:40:52;96917.56;;;18.78;46.20
72210;BME280;60113;48.762;12.302;2023-03-22T10:45:45;96926.31;;;18.86;45.34
72210;BME280;60113;48.762;12.302;2023-03-22T10:48:12;96920.34;;;18.84;44.04
72210;BME280;60113;48.762;12.302;2023-03-22T10:50:41;96925.00;;;19.06;45.28
72210;BME280;60113;48.762;12.302;2023-03-22T10:55:45;96911.50;;;19.07;43.10
72210;BME280;60113;48.762;12.302;2023-03-22T10:58:13;96912.41;;;19.23;46.40
72210;BME280;60113;48.762;12.302;2023-03-22T11:03:40;96906.66;;;19.49;39.99
72210;BME280;60113;48.762;12.302;2023-03-22T11:06:10;96904.00;;;19.65;44.37
72210;BME280;60113;48.762;12.302;2023-03-22T11:08:40;96904.94;;;19.72;44.44
72210;BME280;60113;48.762;12.302;2023-03-22T11:11:06;96915.47;;;19.80;43.84
72210;BME280;60113;48.762;12.302;2023-03-22T11:13:38;96908.84;;;19.46;41.22
72210;BME280;60113;48.762;12.302;2023-03-22T11:16:03;96905.38;;;19.45;41.94
72210;BME280;60113;48.762;12.302;2023-03-22T11:18:30;96902.16;;;19.50;46.28
72210;BME280;60113;48.762;12.302;2023-03-22T11:21:00;96903.16;;;19.49;41.90
72210;BME280;60113;48.762;12.302;2023-03-22T11:23:31;96898.19;;;19.46;41.95
72210;BME280;60113;48.762;12.302;2023-03-22T11:25:59;96897.09;;;19.40;45.13
72210;BME280;60113;48.762;12.302;2023-03-22T11:28:26;96901.56;;;19.40;42.90
72210;BME280;60113;48.762;12.302;2023-03-22T11:30:59;96892.31;;;19.51;42.44
72210;BME280;60113;48.762;12.302;2023-03-22T11:33:26;96885.25;;;19.58;45.26
72210;BME280;60113;48.762;12.302;2023-03-22T11:35:55;96886.25;;;19.57;44.20
72210;BME280;60113;48.762;12.302;2023-03-22T11:38:42;96875.78;;;19.55;44.59
72210;BME280;60113;48.762;12.302;2023-03-22T11:43:45;96872.75;;;19.43;44.90
72210;BME280;60113;48.762;12.302;2023-03-22T11:46:13;96864.94;;;19.42;46.48
72210;BME280;60113;48.762;12.302;2023-03-22T11:48:39;96861.91;;;19.30;44.59
72210;BME280;60113;48.762;12.302;2023-03-22T11:51:13;96861.25;;;19.28;42.80
72210;BME280;60113;48.762;12.302;2023-03-22T11:53:46;96857.78;;;19.27;43.61
72210;BME280;60113;48.762;12.302;2023-03-22T11:56:16;96857.13;;;19.40;44.86
72210;BME280;60113;48.762;12.302;2023-03-22T12:01:15;96850.34;;;19.53;42.66
72210;BME280;60113;48.762;12.302;2023-03-22T12:03:42;96845.84;;;19.68;46.10
72210;BME280;60113;48.762;12.302;2023-03-22T12:06:23;96832.03;;;19.65;38.15
72210;BME280;60113;48.762;12.302;2023-03-22T12:08:57;96843.00;;;19.55;42.63
72210;BME280;60113;48.762;12.302;2023-03-22T12:11:36;96832.50;;;19.68;45.73
72210;BME280;60113;48.762;12.302;2023-03-22T12:14:18;96829.38;;;19.80;44.64
72210;BME280;60113;48.762;12.302;2023-03-22T12:16:49;96815.75;;;19.90;40.64
72210;BME280;60113;48.762;12.302;2023-03-22T12:21:48;96806.47;;;20.22;41.88
72210;BME280;60113;48.762;12.302;2023-03-22T12:24:21;96798.56;;;19.92;39.61
72210;BME280;60113;48.762;12.302;2023-03-22T12:26:48;96794.78;;;19.86;38.51
72210;BME280;60113;48.762;12.302;2023-03-22T12:29:16;96801.22;;;19.92;42.67
72210;BME280;60113;48.762;12.302;2023-03-22T12:31:59;96800.09;;;20.02;40.53
72210;BME280;60113;48.762;12.302;2023-03-22T12:34:31;96803.44;;;19.89;40.80
72210;BME280;60113;48.762;12.302;2023-03-22T12:36:59;96785.78;;;19.88;42.08
72210;BME280;60113;48.762;12.302;2023-03-22T12:41:52;96791.09;;;20.03;40.93
72210;BME280;60113;48.762;12.302;2023-03-22T12:44:24;96784.69;;;20.19;42.48
72210;BME280;60113;48.762;12.302;2023-03-22T12:51:43;96789.69;;;20.72;40.12
72210;BME280;60113;48.762;12.302;2023-03-22T12:54:09;96780.72;;;20.80;43.23
72210;BME280;60113;48.762;12.302;2023-03-22T12:56:37;96777.88;;;20.89;37.96
72210;BME280;60113;48.762;12.302;2023-03-22T12:59:04;96778.81;;;20.96;37.38
72210;BME280;60113;48.762;12.302;2023-03-22T13:03:57;96777.41;;;20.78;38.74
72210;BME280;60113;48.762;12.302;2023-03-22T13:09:14;96766.25;;;20.68;40.97
72210;BME280;60113;48.762;12.302;2023-03-22T13:22:57;96765.19;;;20.62;40.07
72210;BME280;60113;48.762;12.302;2023-03-22T13:30:14;96763.38;;;20.69;37.15
72210;BME280;60113;48.762;12.302;2023-03-22T13:32:47;96758.63;;;20.65;41.70
72210;BME280;60113;48.762;12.302;2023-03-22T13:37:49;96757.63;;;20.44;38.09
72210;BME280;60113;48.762;12.302;2023-03-22T13:40:25;96763.50;;;20.32;36.52
72210;BME280;60113;48.762;12.302;2023-03-22T13:42:51;96751.28;;;20.45;40.94
72210;BME280;60113;48.762;12.302;2023-03-22T13:45:30;96752.47;;;20.42;37.27
72210;BME280;60113;48.762;12.302;2023-03-22T13:48:04;96725.81;;;20.42;36.32
72210;BME280;60113;48.762;12.302;2023-03-22T13:50:30;96750.97;;;20.33;39.02
72210;BME280;60113;48.762;12.302;2023-03-22T13:58:09;96739.03;;;20.51;39.40
72210;BME280;60113;48.762;12.302;2023-03-22T14:00:36;96734.59;;;20.65;38.75
72210;BME280;60113;48.762;12.302;2023-03-22T14:03:16;96735.94;;;20.82;37.99
72210;BME280;60113;48.762;12.302;2023-03-22T14:05:46;96726.59;;;20.93;38.18
72210;BME280;60113;48.762;12.302;2023-03-22T14:08:25;96728.72;;;20.76;37.24
72210;BME280;60113;48.762;12.302;2023-03-22T14:13:39;96733.44;;;20.45;35.57
72210;BME280;60113;48.762;12.302;2023-03-22T14:16:07;96726.19;;;20.39;36.87
72210;BME280;60113;48.762;12.302;2023-03-22T14:18:34;96723.16;;;20.20;35.98
72210;BME280;60113;48.762;12.302;2023-03-22T14:23:55;96712.75;;;20.04;36.42
72210;BME280;60113;48.762;12.302;2023-03-22T14:26:25;96718.97;;;19.89;35.34
72210;BME280;60113;48.762;12.302;2023-03-22T14:28:53;96713.56;;;19.82;36.32
72210;BME280;60113;48.762;12.302;2023-03-22T14:31:26;96716.50;;;19.72;38.27
72210;BME280;60113;48.762;12.302;2023-03-22T14:33:53;96718.47;;;19.64;36.44
72210;BME280;60113;48.762;12.302;2023-03-22T14:36:19;96713.44;;;19.54;41.29
72210;BME280;60113;48.762;12.302;2023-03-22T14:38:46;96704.75;;;19.45;38.75
72210;BME280;60113;48.762;12.302;2023-03-22T14:41:19;96701.97;;;19.53;39.62
72210;BME280;60113;48.762;12.302;2023-03-22T14:43:46;96703.16;;;19.51;39.69
72210;BME280;60113;48.762;12.302;2023-03-22T14:48:37;96701.81;;;19.40;42.52